sensor_id;sensor_type;location;lat;lon;timestamp;temperature;humidity
5806;DHT22;2929;50.810;8.342;2024-01-15T00:01:08;-1.70;99.90
5806;DHT22;2929;50.810;8.342;2024-01-15T00:03:34;-1.70;99.90
5806;DHT22;2929;50.810;8.342;2024-01-15T00:06:02;-1.60;99.90
5806;DHT22;2929;50.810;8.342;2024-01-15T00:08:29;-1.70;99.90
5806;DHT22;2929;50.810;8.342;2024-01-15T00:10:55;-1.70;99.90
5806;DHT22;2929;50.810;8.342;2024-01-15T00:13:24;-1.70;99.90
5806;DHT22;2929;50.810;8.342;2024-01-15T00:15:51;-1.60;99.90
5806;DHT22;2929;50.810;8.342;2024-01-15T00:18:17;-1.60;99.90
5806;DHT22;2929;50.810;8.342;2024-01-15T00:20:44;-1.60;99.90
5806;DHT22;2929;50.810;8.342;2024-01-15T00:23:11;-1.60;99.90
5806;DHT22;2929;50.810;8.342;2024-01-15T00:25:38;-1.60;99.90
5806;DHT22;2929;50.810;8.342;2024-01-15T00:28:06;-1.60;99.90
5806;DHT22;2929;50.810;8.342;2024-01-15T00:30:34;-1.60;99.90
5806;DHT22;2929;50.810;8.342;2024-01-15T00:33:01;-1.50;99.90
5806;DHT22;2929;50.810;8.342;2024-01-15T00:35:28;-1.50;99.90
5806;DHT22;2929;50.810;8.342;2024-01-15T00:37:55;-1.50;99.90
5806;DHT22;2929;50.810;8.342;2024-01-15T00:40:22;-1.50;99.90
5806;DHT22;2929;50.810;8.342;2024-01-15T00:42:51;-1.50;99.90
5806;DHT22;2929;50.810;8.342;2024-01-15T00:45:18;-1.50;99.90
5806;DHT22;2929;50.810;8.342;2024-01-15T00:47:46;-1.50;99.90
5806;DHT22;2929;50.810;8.342;2024-01-15T00:50:13;-1.50;99.90
5806;DHT22;2929;50.810;8.342;2024-01-15T00:52:40;-1.50;99.90
5806;DHT22;2929;50.810;8.342;2024-01-15T00:55:07;-1.60;99.90
5806;DHT22;2929;50.810;8.342;2024-01-15T00:57:34;-1.50;99.90
5806;DHT22;2929;50.810;8.342;2024-01-15T01:00:01;-1.50;99.90
5806;DHT22;2929;50.810;8.342;2024-01-15T01:02:28;-1.60;99.90
5806;DHT22;2929;50.810;8.342;2024-01-15T01:04:56;-1.50;99.90
5806;DHT22;2929;50.810;8.342;2024-01-15T01:07:23;-1.40;99.90
5806;DHT22;2929;50.810;8.342;2024-01-15T01:09:50;-1.50;99.90
5806;DHT22;2929;50.810;8.342;2024-01-15T01:12:17;-1.50;99.90
5806;DHT22;2929;50.810;8.342;2024-01-15T01:14:45;-1.50;99.90
5806;DHT22;2929;50.810;8.342;2024-01-15T01:17:12;-1.40;99.90
5806;DHT22;2929;50.810;8.342;2024-01-15T01:19:39;-1.40;99.90
5806;DHT22;2929;50.810;8.342;2024-01-15T01:22:07;-1.40;99.90
5806;DHT22;2929;50.810;8.342;2024-01-15T01:24:34;-1.30;99.90
5806;DHT22;2929;50.810;8.342;2024-01-15T01:27:01;-1.30;99.90
5806;DHT22;2929;50.810;8.342;2024-01-15T01:29:28;-1.30;99.90
5806;DHT22;2929;50.810;8.342;2024-01-15T01:31:55;-1.30;99.90
5806;DHT22;2929;50.810;8.342;2024-01-15T01:34:22;-1.30;99.90
5806;DHT22;2929;50.810;8.342;2024-01-15T01:36:49;-1.30;99.90
5806;DHT22;2929;50.810;8.342;2024-01-15T01:39:18;-1.30;99.90
5806;DHT22;2929;50.810;8.342;2024-01-15T01:41:44;-1.30;99.90
5806;DHT22;2929;50.810;8.342;2024-01-15T01:44:13;-1.30;99.90
5806;DHT22;2929;50.810;8.342;2024-01-15T01:46:44;-1.30;99.90
5806;DHT22;2929;50.810;8.342;2024-01-15T01:49:11;-1.30;99.90
5806;DHT22;2929;50.810;8.342;2024-01-15T01:51:38;-1.30;99.90
5806;DHT22;2929;50.810;8.342;2024-01-15T01:54:06;-1.30;99.90
5806;DHT22;2929;50.810;8.342;2024-01-15T01:56:36;-1.00;99.90
5806;DHT22;2929;50.810;8.342;2024-01-15T01:59:04;-1.10;99.90
5806;DHT22;2929;50.810;8.342;2024-01-15T02:01:31;-1.00;99.90
5806;DHT22;2929;50.810;8.342;2024-01-15T02:03:59;-1.00;99.90
5806;DHT22;2929;50.810;8.342;2024-01-15T02:06:26;-1.00;99.90
5806;DHT22;2929;50.810;8.342;2024-01-15T02:08:53;-0.90;99.90
5806;DHT22;2929;50.810;8.342;2024-01-15T02:11:20;-0.90;99.90
5806;DHT22;2929;50.810;8.342;2024-01-15T02:13:50;-0.90;99.90
5806;DHT22;2929;50.810;8.342;2024-01-15T02:16:18;-0.90;99.90
5806;DHT22;2929;50.810;8.342;2024-01-15T02:18:46;-0.80;99.90
5806;DHT22;2929;50.810;8.342;2024-01-15T02:21:14;-0.70;99.90
5806;DHT22;2929;50.810;8.342;2024-01-15T02:23:43;-0.60;99.90
5806;DHT22;2929;50.810;8.342;2024-01-15T02:26:10;-0.60;99.90
5806;DHT22;2929;50.810;8.342;2024-01-15T02:28:37;-0.50;99.90
5806;DHT22;2929;50.810;8.342;2024-01-15T02:31:04;-0.40;99.90
5806;DHT22;2929;50.810;8.342;2024-01-15T02:33:31;-0.40;99.90
5806;DHT22;2929;50.810;8.342;2024-01-15T02:35:58;-0.40;99.90
5806;DHT22;2929;50.810;8.342;2024-01-15T02:38:25;-0.40;99.90
5806;DHT22;2929;50.810;8.342;2024-01-15T02:40:53;-0.40;99.90
5806;DHT22;2929;50.810;8.342;2024-01-15T02:43:20;-0.40;99.90
5806;DHT22;2929;50.810;8.342;2024-01-15T02:45:47;-0.30;99.90
5806;DHT22;2929;50.810;8.342;2024-01-15T02:48:13;-0.30;99.90
5806;DHT22;2929;50.810;8.342;2024-01-15T02:50:40;-0.30;99.90
5806;DHT22;2929;50.810;8.342;2024-01-15T02:53:07;-0.30;99.90
5806;DHT22;2929;50.810;8.342;2024-01-15T02:55:33;-0.30;99.90
5806;DHT22;2929;50.810;8.342;2024-01-15T02:58:01;-0.40;99.90
5806;DHT22;2929;50.810;8.342;2024-01-15T03:00:28;-0.40;99.90
5806;DHT22;2929;50.810;8.342;2024-01-15T03:02:56;-0.40;99.90
5806;DHT22;2929;50.810;8.342;2024-01-15T03:05:23;-0.40;99.90
5806;DHT22;2929;50.810;8.342;2024-01-15T03:07:49;-0.40;99.90
5806;DHT22;2929;50.810;8.342;2024-01-15T03:10:16;-0.40;99.90
5806;DHT22;2929;50.810;8.342;2024-01-15T03:12:43;-0.40;99.90
5806;DHT22;2929;50.810;8.342;2024-01-15T03:15:12;-0.30;99.90
5806;DHT22;2929;50.810;8.342;2024-01-15T03:17:41;-0.30;99.90
5806;DHT22;2929;50.810;8.342;2024-01-15T03:20:09;-0.30;99.90
5806;DHT22;2929;50.810;8.342;2024-01-15T03:22:36;-0.30;99.90
5806;DHT22;2929;50.810;8.342;2024-01-15T03:25:04;-0.30;99.90
5806;DHT22;2929;50.810;8.342;2024-01-15T03:27:31;-0.30;99.90
5806;DHT22;2929;50.810;8.342;2024-01-15T03:29:57;-0.20;99.90
5806;DHT22;2929;50.810;8.342;2024-01-15T03:32:26;-0.30;99.90
5806;DHT22;2929;50.810;8.342;2024-01-15T03:34:52;-0.20;99.90
5806;DHT22;2929;50.810;8.342;2024-01-15T03:37:19;-0.30;99.90
5806;DHT22;2929;50.810;8.342;2024-01-15T03:39:46;-0.20;99.90
5806;DHT22;2929;50.810;8.342;2024-01-15T03:42:13;-0.20;99.90
5806;DHT22;2929;50.810;8.342;2024-01-15T03:44:43;-0.20;99.90
5806;DHT22;2929;50.810;8.342;2024-01-15T03:47:10;-0.20;99.90
5806;DHT22;2929;50.810;8.342;2024-01-15T03:49:38;-0.20;99.90
5806;DHT22;2929;50.810;8.342;2024-01-15T03:52:05;-0.10;99.90
5806;DHT22;2929;50.810;8.342;2024-01-15T03:54:32;-0.20;99.90
5806;DHT22;2929;50.810;8.342;2024-01-15T03:56:59;-0.20;99.90
5806;DHT22;2929;50.810;8.342;2024-01-15T03:59:27;-0.20;99.90
5806;DHT22;2929;50.810;8.342;2024-01-15T04:01:53;-0.20;99.90
5806;DHT22;2929;50.810;8.342;2024-01-15T04:04:20;-0.20;99.90
5806;DHT22;2929;50.810;8.342;2024-01-15T04:06:49;-0.20;99.90
5806;DHT22;2929;50.810;8.342;2024-01-15T04:09:16;-0.20;99.90
5806;DHT22;2929;50.810;8.342;2024-01-15T04:11:43;-0.20;99.90
5806;DHT22;2929;50.810;8.342;2024-01-15T04:14:10;-0.20;99.90
5806;DHT22;2929;50.810;8.342;2024-01-15T04:16:37;-0.20;99.90
5806;DHT22;2929;50.810;8.342;2024-01-15T04:19:04;-0.10;99.90
5806;DHT22;2929;50.810;8.342;2024-01-15T04:21:31;-0.10;99.90
5806;DHT22;2929;50.810;8.342;2024-01-15T04:23:59;-0.10;99.90
5806;DHT22;2929;50.810;8.342;2024-01-15T04:26:26;-0.20;99.90
5806;DHT22;2929;50.810;8.342;2024-01-15T04:28:53;-0.10;99.90
5806;DHT22;2929;50.810;8.342;2024-01-15T04:31:24;-0.10;99.90
5806;DHT22;2929;50.810;8.342;2024-01-15T04:33:52;-0.20;99.90
5806;DHT22;2929;50.810;8.342;2024-01-15T04:36:19;-0.20;99.90
5806;DHT22;2929;50.810;8.342;2024-01-15T04:38:46;-0.20;99.90
5806;DHT22;2929;50.810;8.342;2024-01-15T04:41:16;-0.20;99.90
5806;DHT22;2929;50.810;8.342;2024-01-15T04:43:44;-0.20;99.90
5806;DHT22;2929;50.810;8.342;2024-01-15T04:46:11;-0.20;99.90
5806;DHT22;2929;50.810;8.342;2024-01-15T04:48:38;-0.10;99.90
5806;DHT22;2929;50.810;8.342;2024-01-15T04:51:05;-0.10;99.90
5806;DHT22;2929;50.810;8.342;2024-01-15T04:53:34;-0.20;99.90
5806;DHT22;2929;50.810;8.342;2024-01-15T04:56:01;-0.10;99.90
5806;DHT22;2929;50.810;8.342;2024-01-15T04:58:29;-0.10;99.90
5806;DHT22;2929;50.810;8.342;2024-01-15T05:00:56;-0.10;99.90
5806;DHT22;2929;50.810;8.342;2024-01-15T05:03:23;-0.20;99.90
5806;DHT22;2929;50.810;8.342;2024-01-15T05:05:50;-0.20;99.90
5806;DHT22;2929;50.810;8.342;2024-01-15T05:08:17;-0.20;99.90
5806;DHT22;2929;50.810;8.342;2024-01-15T05:10:44;-0.20;99.90
5806;DHT22;2929;50.810;8.342;2024-01-15T05:13:11;-0.20;99.90
5806;DHT22;2929;50.810;8.342;2024-01-15T05:15:39;-0.20;99.90
5806;DHT22;2929;50.810;8.342;2024-01-15T05:18:06;-0.20;99.90
5806;DHT22;2929;50.810;8.342;2024-01-15T05:20:33;-0.20;99.90
5806;DHT22;2929;50.810;8.342;2024-01-15T05:23:00;-0.20;99.90
5806;DHT22;2929;50.810;8.342;2024-01-15T05:25:27;-0.20;99.90
5806;DHT22;2929;50.810;8.342;2024-01-15T05:27:54;-0.30;99.90
5806;DHT22;2929;50.810;8.342;2024-01-15T05:30:21;-0.30;99.90
5806;DHT22;2929;50.810;8.342;2024-01-15T05:32:50;-0.20;99.90
5806;DHT22;2929;50.810;8.342;2024-01-15T05:35:17;-0.30;99.90
5806;DHT22;2929;50.810;8.342;2024-01-15T05:37:45;-0.20;99.90
5806;DHT22;2929;50.810;8.342;2024-01-15T05:40:13;-0.20;99.90
5806;DHT22;2929;50.810;8.342;2024-01-15T05:42:40;-0.30;99.90
5806;DHT22;2929;50.810;8.342;2024-01-15T05:45:08;-0.30;99.90
5806;DHT22;2929;50.810;8.342;2024-01-15T05:47:36;-0.30;99.90
5806;DHT22;2929;50.810;8.342;2024-01-15T05:50:05;-0.20;99.90
5806;DHT22;2929;50.810;8.342;2024-01-15T05:52:32;-0.30;99.90
5806;DHT22;2929;50.810;8.342;2024-01-15T05:54:59;-0.20;99.90
5806;DHT22;2929;50.810;8.342;2024-01-15T05:57:27;-0.30;99.90
5806;DHT22;2929;50.810;8.342;2024-01-15T05:59:54;-0.20;99.90
5806;DHT22;2929;50.810;8.342;2024-01-15T06:02:21;-0.20;99.90
5806;DHT22;2929;50.810;8.342;2024-01-15T06:04:48;-0.20;99.90
5806;DHT22;2929;50.810;8.342;2024-01-15T06:07:16;-0.30;99.90
5806;DHT22;2929;50.810;8.342;2024-01-15T06:09:43;-0.20;99.90
5806;DHT22;2929;50.810;8.342;2024-01-15T06:12:11;-0.30;99.90
5806;DHT22;2929;50.810;8.342;2024-01-15T06:14:39;-0.30;99.90
5806;DHT22;2929;50.810;8.342;2024-01-15T06:17:06;-0.30;99.90
5806;DHT22;2929;50.810;8.342;2024-01-15T06:19:33;-0.30;99.90
5806;DHT22;2929;50.810;8.342;2024-01-15T06:22:00;-0.40;99.90
5806;DHT22;2929;50.810;8.342;2024-01-15T06:24:28;-0.30;99.90
5806;DHT22;2929;50.810;8.342;2024-01-15T06:26:55;-0.30;99.90
5806;DHT22;2929;50.810;8.342;2024-01-15T06:29:25;-0.30;99.90
5806;DHT22;2929;50.810;8.342;2024-01-15T06:31:52;-0.40;99.90
5806;DHT22;2929;50.810;8.342;2024-01-15T06:34:19;-0.30;99.90
5806;DHT22;2929;50.810;8.342;2024-01-15T06:36:46;-0.30;99.90
5806;DHT22;2929;50.810;8.342;2024-01-15T06:39:13;-0.30;99.90
5806;DHT22;2929;50.810;8.342;2024-01-15T06:41:41;-0.30;99.90
5806;DHT22;2929;50.810;8.342;2024-01-15T06:44:10;-0.30;99.90
5806;DHT22;2929;50.810;8.342;2024-01-15T06:46:37;-0.30;99.90
5806;DHT22;2929;50.810;8.342;2024-01-15T06:49:08;-0.30;99.90
5806;DHT22;2929;50.810;8.342;2024-01-15T06:51:35;-0.30;99.90
5806;DHT22;2929;50.810;8.342;2024-01-15T06:54:02;-0.20;99.90
5806;DHT22;2929;50.810;8.342;2024-01-15T06:56:29;-0.20;99.90
5806;DHT22;2929;50.810;8.342;2024-01-15T06:58:57;-0.20;99.90
5806;DHT22;2929;50.810;8.342;2024-01-15T07:01:24;-0.20;99.90
5806;DHT22;2929;50.810;8.342;2024-01-15T07:03:51;-0.20;99.90
5806;DHT22;2929;50.810;8.342;2024-01-15T07:06:18;-0.30;99.90
5806;DHT22;2929;50.810;8.342;2024-01-15T07:08:46;-0.20;99.90
5806;DHT22;2929;50.810;8.342;2024-01-15T07:11:13;-0.20;99.90
5806;DHT22;2929;50.810;8.342;2024-01-15T07:13:41;-0.30;99.90
5806;DHT22;2929;50.810;8.342;2024-01-15T07:16:09;-0.20;99.90
5806;DHT22;2929;50.810;8.342;2024-01-15T07:18:36;-0.20;99.90
5806;DHT22;2929;50.810;8.342;2024-01-15T07:21:04;-0.20;99.90
5806;DHT22;2929;50.810;8.342;2024-01-15T07:23:31;-0.20;99.90
5806;DHT22;2929;50.810;8.342;2024-01-15T07:25:58;-0.20;99.90
5806;DHT22;2929;50.810;8.342;2024-01-15T07:28:25;-0.20;99.90
5806;DHT22;2929;50.810;8.342;2024-01-15T07:30:52;-0.20;99.90
5806;DHT22;2929;50.810;8.342;2024-01-15T07:33:20;-0.20;99.90
5806;DHT22;2929;50.810;8.342;2024-01-15T07:35:49;-0.20;99.90
5806;DHT22;2929;50.810;8.342;2024-01-15T07:38:15;-0.20;99.90
5806;DHT22;2929;50.810;8.342;2024-01-15T07:40:42;-0.20;99.90
5806;DHT22;2929;50.810;8.342;2024-01-15T07:43:10;-0.20;99.90
5806;DHT22;2929;50.810;8.342;2024-01-15T07:45:37;-0.20;99.90
5806;DHT22;2929;50.810;8.342;2024-01-15T07:48:04;-0.20;99.90
5806;DHT22;2929;50.810;8.342;2024-01-15T07:50:33;-0.20;99.90
5806;DHT22;2929;50.810;8.342;2024-01-15T07:52:59;-0.20;99.90
5806;DHT22;2929;50.810;8.342;2024-01-15T07:55:26;-0.10;99.90
5806;DHT22;2929;50.810;8.342;2024-01-15T07:57:53;-0.20;99.90
5806;DHT22;2929;50.810;8.342;2024-01-15T08:00:24;-0.20;99.90
5806;DHT22;2929;50.810;8.342;2024-01-15T08:02:51;-0.30;99.90
5806;DHT22;2929;50.810;8.342;2024-01-15T08:05:18;-0.30;99.90
5806;DHT22;2929;50.810;8.342;2024-01-15T08:07:47;-0.30;99.90
5806;DHT22;2929;50.810;8.342;2024-01-15T08:10:14;-0.20;99.90
5806;DHT22;2929;50.810;8.342;2024-01-15T08:12:41;-0.20;99.90
5806;DHT22;2929;50.810;8.342;2024-01-15T08:15:08;-0.20;99.90
5806;DHT22;2929;50.810;8.342;2024-01-15T08:17:35;-0.20;99.90
5806;DHT22;2929;50.810;8.342;2024-01-15T08:20:02;-0.20;99.90
5806;DHT22;2929;50.810;8.342;2024-01-15T08:22:30;-0.20;99.90
5806;DHT22;2929;50.810;8.342;2024-01-15T08:24:58;-0.20;99.90
5806;DHT22;2929;50.810;8.342;2024-01-15T08:27:25;-0.20;99.90
5806;DHT22;2929;50.810;8.342;2024-01-15T08:29:53;-0.10;99.90
5806;DHT22;2929;50.810;8.342;2024-01-15T08:32:20;-0.10;99.90
5806;DHT22;2929;50.810;8.342;2024-01-15T08:34:47;-0.10;99.90
5806;DHT22;2929;50.810;8.342;2024-01-15T08:37:17;0.00;99.90
5806;DHT22;2929;50.810;8.342;2024-01-15T08:39:44;0.10;99.90
5806;DHT22;2929;50.810;8.342;2024-01-15T08:42:13;0.10;99.90
5806;DHT22;2929;50.810;8.342;2024-01-15T08:44:39;0.20;99.90
5806;DHT22;2929;50.810;8.342;2024-01-15T08:47:08;0.20;99.90
5806;DHT22;2929;50.810;8.342;2024-01-15T08:49:35;0.10;99.90
5806;DHT22;2929;50.810;8.342;2024-01-15T08:52:03;0.00;99.90
5806;DHT22;2929;50.810;8.342;2024-01-15T08:54:29;-0.10;99.90
5806;DHT22;2929;50.810;8.342;2024-01-15T08:56:57;-0.20;99.90
5806;DHT22;2929;50.810;8.342;2024-01-15T08:59:26;-0.20;99.90
5806;DHT22;2929;50.810;8.342;2024-01-15T09:01:54;-0.20;99.90
5806;DHT22;2929;50.810;8.342;2024-01-15T09:04:23;-0.20;99.90
5806;DHT22;2929;50.810;8.342;2024-01-15T09:06:50;-0.20;99.90
5806;DHT22;2929;50.810;8.342;2024-01-15T09:09:17;-0.30;99.90
5806;DHT22;2929;50.810;8.342;2024-01-15T09:11:45;-0.20;99.90
5806;DHT22;2929;50.810;8.342;2024-01-15T09:14:12;-0.20;99.90
5806;DHT22;2929;50.810;8.342;2024-01-15T09:16:40;-0.30;99.90
5806;DHT22;2929;50.810;8.342;2024-01-15T09:19:08;-0.20;99.90
5806;DHT22;2929;50.810;8.342;2024-01-15T09:21:35;-0.10;99.90
5806;DHT22;2929;50.810;8.342;2024-01-15T09:24:02;0.00;99.90
5806;DHT22;2929;50.810;8.342;2024-01-15T09:26:30;-0.10;99.90
5806;DHT22;2929;50.810;8.342;2024-01-15T09:28:57;-0.20;99.90
5806;DHT22;2929;50.810;8.342;2024-01-15T09:31:24;-0.20;99.90
5806;DHT22;2929;50.810;8.342;2024-01-15T09:33:52;-0.20;99.90
5806;DHT22;2929;50.810;8.342;2024-01-15T09:36:21;-0.20;99.90
5806;DHT22;2929;50.810;8.342;2024-01-15T09:38:49;-0.20;99.90
5806;DHT22;2929;50.810;8.342;2024-01-15T09:41:16;-0.20;99.90
5806;DHT22;2929;50.810;8.342;2024-01-15T09:43:44;-0.20;99.90
5806;DHT22;2929;50.810;8.342;2024-01-15T09:46:14;-0.20;99.90
5806;DHT22;2929;50.810;8.342;2024-01-15T09:48:44;-0.10;99.90
5806;DHT22;2929;50.810;8.342;2024-01-15T09:51:12;-0.10;99.90
5806;DHT22;2929;50.810;8.342;2024-01-15T09:53:39;-0.10;99.90
5806;DHT22;2929;50.810;8.342;2024-01-15T09:56:08;0.10;99.90
5806;DHT22;2929;50.810;8.342;2024-01-15T09:58:38;0.10;99.90
5806;DHT22;2929;50.810;8.342;2024-01-15T10:01:06;0.10;99.90
5806;DHT22;2929;50.810;8.342;2024-01-15T10:03:33;0.10;99.90
5806;DHT22;2929;50.810;8.342;2024-01-15T10:06:01;0.20;99.90
5806;DHT22;2929;50.810;8.342;2024-01-15T10:08:30;0.30;99.90
5806;DHT22;2929;50.810;8.342;2024-01-15T10:10:58;0.40;99.90
5806;DHT22;2929;50.810;8.342;2024-01-15T10:13:25;0.50;99.90
5806;DHT22;2929;50.810;8.342;2024-01-15T10:15:53;0.50;99.90
5806;DHT22;2929;50.810;8.342;2024-01-15T10:18:21;0.40;99.90
5806;DHT22;2929;50.810;8.342;2024-01-15T10:20:48;0.40;99.90
5806;DHT22;2929;50.810;8.342;2024-01-15T10:23:15;0.40;99.90
5806;DHT22;2929;50.810;8.342;2024-01-15T10:25:44;0.40;99.90
5806;DHT22;2929;50.810;8.342;2024-01-15T10:28:11;0.30;99.90
5806;DHT22;2929;50.810;8.342;2024-01-15T10:30:37;0.40;99.90
5806;DHT22;2929;50.810;8.342;2024-01-15T10:33:05;0.30;99.90
5806;DHT22;2929;50.810;8.342;2024-01-15T10:35:32;0.20;99.90
5806;DHT22;2929;50.810;8.342;2024-01-15T10:38:00;0.20;99.90
5806;DHT22;2929;50.810;8.342;2024-01-15T10:40:27;0.20;99.90
5806;DHT22;2929;50.810;8.342;2024-01-15T10:42:56;0.20;99.90
5806;DHT22;2929;50.810;8.342;2024-01-15T10:45:23;0.20;99.90
5806;DHT22;2929;50.810;8.342;2024-01-15T10:47:54;0.10;99.90
5806;DHT22;2929;50.810;8.342;2024-01-15T10:50:31;0.10;99.90
5806;DHT22;2929;50.810;8.342;2024-01-15T10:52:58;0.10;99.90
5806;DHT22;2929;50.810;8.342;2024-01-15T10:55:25;0.30;99.90
5806;DHT22;2929;50.810;8.342;2024-01-15T10:57:53;0.20;99.90
5806;DHT22;2929;50.810;8.342;2024-01-15T11:00:23;0.20;99.90
5806;DHT22;2929;50.810;8.342;2024-01-15T11:02:51;0.10;99.90
5806;DHT22;2929;50.810;8.342;2024-01-15T11:05:21;0.10;99.90
5806;DHT22;2929;50.810;8.342;2024-01-15T11:07:49;0.00;99.90
5806;DHT22;2929;50.810;8.342;2024-01-15T11:10:39;0.00;99.90
5806;DHT22;2929;50.810;8.342;2024-01-15T11:13:20;0.00;99.90
5806;DHT22;2929;50.810;8.342;2024-01-15T11:15:59;0.00;99.90
5806;DHT22;2929;50.810;8.342;2024-01-15T11:18:28;0.10;99.90
5806;DHT22;2929;50.810;8.342;2024-01-15T11:21:24;0.20;99.90
5806;DHT22;2929;50.810;8.342;2024-01-15T11:23:53;0.40;99.90
5806;DHT22;2929;50.810;8.342;2024-01-15T11:26:36;0.60;99.90
5806;DHT22;2929;50.810;8.342;2024-01-15T11:29:04;0.70;99.90
5806;DHT22;2929;50.810;8.342;2024-01-15T11:31:59;0.50;99.90
5806;DHT22;2929;50.810;8.342;2024-01-15T11:34:56;0.40;99.90
5806;DHT22;2929;50.810;8.342;2024-01-15T11:37:28;0.50;99.90
5806;DHT22;2929;50.810;8.342;2024-01-15T11:40:00;0.70;99.90
5806;DHT22;2929;50.810;8.342;2024-01-15T11:42:30;0.80;99.90
5806;DHT22;2929;50.810;8.342;2024-01-15T11:44:57;0.70;99.90
5806;DHT22;2929;50.810;8.342;2024-01-15T11:50:33;0.60;99.90
5806;DHT22;2929;50.810;8.342;2024-01-15T11:53:02;0.60;99.90
5806;DHT22;2929;50.810;8.342;2024-01-15T11:55:33;0.70;99.90
5806;DHT22;2929;50.810;8.342;2024-01-15T11:58:01;0.70;99.90
5806;DHT22;2929;50.810;8.342;2024-01-15T12:00:29;0.70;99.90
5806;DHT22;2929;50.810;8.342;2024-01-15T12:02:58;0.70;99.90
5806;DHT22;2929;50.810;8.342;2024-01-15T12:05:27;0.80;99.90
5806;DHT22;2929;50.810;8.342;2024-01-15T12:07:56;0.70;99.90
5806;DHT22;2929;50.810;8.342;2024-01-15T12:10:23;0.70;99.90
5806;DHT22;2929;50.810;8.342;2024-01-15T12:12:58;0.80;99.90
5806;DHT22;2929;50.810;8.342;2024-01-15T12:15:27;0.80;99.90
5806;DHT22;2929;50.810;8.342;2024-01-15T12:17:55;0.90;99.90
5806;DHT22;2929;50.810;8.342;2024-01-15T12:20:24;1.00;99.90
5806;DHT22;2929;50.810;8.342;2024-01-15T12:22:51;0.80;99.90
5806;DHT22;2929;50.810;8.342;2024-01-15T12:25:19;0.90;99.90
5806;DHT22;2929;50.810;8.342;2024-01-15T12:27:47;0.90;99.90
5806;DHT22;2929;50.810;8.342;2024-01-15T12:30:14;0.80;99.90
5806;DHT22;2929;50.810;8.342;2024-01-15T12:32:42;0.80;99.90
5806;DHT22;2929;50.810;8.342;2024-01-15T12:35:10;0.80;99.90
5806;DHT22;2929;50.810;8.342;2024-01-15T12:37:39;0.80;99.90
5806;DHT22;2929;50.810;8.342;2024-01-15T12:40:08;0.80;99.90
5806;DHT22;2929;50.810;8.342;2024-01-15T12:42:39;0.80;99.90
5806;DHT22;2929;50.810;8.342;2024-01-15T12:45:06;0.90;99.90
5806;DHT22;2929;50.810;8.342;2024-01-15T12:47:36;1.00;99.90
5806;DHT22;2929;50.810;8.342;2024-01-15T12:50:06;1.10;99.90
5806;DHT22;2929;50.810;8.342;2024-01-15T12:52:34;1.20;99.90
5806;DHT22;2929;50.810;8.342;2024-01-15T12:55:04;1.20;99.90
5806;DHT22;2929;50.810;8.342;2024-01-15T12:57:31;1.30;99.90
5806;DHT22;2929;50.810;8.342;2024-01-15T13:00:00;1.20;99.90
5806;DHT22;2929;50.810;8.342;2024-01-15T13:02:27;1.10;99.90
5806;DHT22;2929;50.810;8.342;2024-01-15T13:04:54;1.00;99.90
5806;DHT22;2929;50.810;8.342;2024-01-15T13:07:22;0.90;99.90
5806;DHT22;2929;50.810;8.342;2024-01-15T13:09:49;0.70;99.90
5806;DHT22;2929;50.810;8.342;2024-01-15T13:12:19;0.80;99.90
5806;DHT22;2929;50.810;8.342;2024-01-15T13:14:46;0.80;99.90
5806;DHT22;2929;50.810;8.342;2024-01-15T13:17:15;0.80;99.90
5806;DHT22;2929;50.810;8.342;2024-01-15T13:19:42;0.70;99.90
5806;DHT22;2929;50.810;8.342;2024-01-15T13:22:09;0.80;99.90
5806;DHT22;2929;50.810;8.342;2024-01-15T13:24:39;0.80;99.90
5806;DHT22;2929;50.810;8.342;2024-01-15T13:27:06;0.90;99.90
5806;DHT22;2929;50.810;8.342;2024-01-15T13:29:34;0.90;99.90
5806;DHT22;2929;50.810;8.342;2024-01-15T13:32:02;0.90;99.90
5806;DHT22;2929;50.810;8.342;2024-01-15T13:34:31;0.80;99.90
5806;DHT22;2929;50.810;8.342;2024-01-15T13:36:58;0.90;99.90
5806;DHT22;2929;50.810;8.342;2024-01-15T13:39:25;1.00;99.90
5806;DHT22;2929;50.810;8.342;2024-01-15T13:41:52;1.00;99.90
5806;DHT22;2929;50.810;8.342;2024-01-15T13:44:19;1.00;99.90
5806;DHT22;2929;50.810;8.342;2024-01-15T13:46:46;1.10;99.90
5806;DHT22;2929;50.810;8.342;2024-01-15T13:49:13;1.10;99.90
5806;DHT22;2929;50.810;8.342;2024-01-15T13:51:42;0.90;99.90
5806;DHT22;2929;50.810;8.342;2024-01-15T13:54:09;0.90;99.90
5806;DHT22;2929;50.810;8.342;2024-01-15T13:56:36;0.70;99.90
5806;DHT22;2929;50.810;8.342;2024-01-15T13:59:03;0.60;99.90
5806;DHT22;2929;50.810;8.342;2024-01-15T14:01:31;0.50;99.90
5806;DHT22;2929;50.810;8.342;2024-01-15T14:03:59;0.50;99.90
5806;DHT22;2929;50.810;8.342;2024-01-15T14:06:26;0.40;99.90
5806;DHT22;2929;50.810;8.342;2024-01-15T14:08:55;0.30;99.90
5806;DHT22;2929;50.810;8.342;2024-01-15T14:11:22;0.30;99.90
5806;DHT22;2929;50.810;8.342;2024-01-15T14:13:51;0.20;99.90
5806;DHT22;2929;50.810;8.342;2024-01-15T14:16:19;0.20;99.90
5806;DHT22;2929;50.810;8.342;2024-01-15T14:18:47;0.20;99.90
5806;DHT22;2929;50.810;8.342;2024-01-15T14:21:14;0.20;99.90
5806;DHT22;2929;50.810;8.342;2024-01-15T14:23:41;0.20;99.90
5806;DHT22;2929;50.810;8.342;2024-01-15T14:26:10;0.10;99.90
5806;DHT22;2929;50.810;8.342;2024-01-15T14:28:37;0.20;99.90
5806;DHT22;2929;50.810;8.342;2024-01-15T14:31:04;0.10;99.90
5806;DHT22;2929;50.810;8.342;2024-01-15T14:33:31;0.20;99.90
5806;DHT22;2929;50.810;8.342;2024-01-15T14:35:58;0.30;99.90
5806;DHT22;2929;50.810;8.342;2024-01-15T14:38:25;0.20;99.90
5806;DHT22;2929;50.810;8.342;2024-01-15T14:40:52;0.30;99.90
5806;DHT22;2929;50.810;8.342;2024-01-15T14:43:21;0.30;99.90
5806;DHT22;2929;50.810;8.342;2024-01-15T14:45:48;0.30;99.90
5806;DHT22;2929;50.810;8.342;2024-01-15T14:48:15;0.30;99.90
5806;DHT22;2929;50.810;8.342;2024-01-15T14:50:42;0.30;99.90
5806;DHT22;2929;50.810;8.342;2024-01-15T14:53:09;0.20;99.90
5806;DHT22;2929;50.810;8.342;2024-01-15T14:55:36;0.20;99.90
5806;DHT22;2929;50.810;8.342;2024-01-15T14:58:03;0.20;99.90
5806;DHT22;2929;50.810;8.342;2024-01-15T15:00:32;0.20;99.90
5806;DHT22;2929;50.810;8.342;2024-01-15T15:02:59;0.20;99.90
5806;DHT22;2929;50.810;8.342;2024-01-15T15:05:26;0.20;99.90
5806;DHT22;2929;50.810;8.342;2024-01-15T15:07:53;0.20;99.90
5806;DHT22;2929;50.810;8.342;2024-01-15T15:10:20;0.20;99.90
5806;DHT22;2929;50.810;8.342;2024-01-15T15:12:47;0.20;99.90
5806;DHT22;2929;50.810;8.342;2024-01-15T15:15:14;0.20;99.90
5806;DHT22;2929;50.810;8.342;2024-01-15T15:17:43;0.20;99.90
5806;DHT22;2929;50.810;8.342;2024-01-15T15:20:11;0.30;99.90
5806;DHT22;2929;50.810;8.342;2024-01-15T15:22:38;0.30;99.90
5806;DHT22;2929;50.810;8.342;2024-01-15T15:25:06;0.30;99.90
5806;DHT22;2929;50.810;8.342;2024-01-15T15:27:35;0.30;99.90
5806;DHT22;2929;50.810;8.342;2024-01-15T15:30:02;0.20;99.90
5806;DHT22;2929;50.810;8.342;2024-01-15T15:32:29;0.10;99.90
5806;DHT22;2929;50.810;8.342;2024-01-15T15:34:57;0.10;99.90
5806;DHT22;2929;50.810;8.342;2024-01-15T15:37:25;0.10;99.90
5806;DHT22;2929;50.810;8.342;2024-01-15T15:39:52;0.10;99.90
5806;DHT22;2929;50.810;8.342;2024-01-15T15:42:19;0.10;99.90
5806;DHT22;2929;50.810;8.342;2024-01-15T15:44:46;0.10;99.90
5806;DHT22;2929;50.810;8.342;2024-01-15T15:47:14;0.10;99.90
5806;DHT22;2929;50.810;8.342;2024-01-15T15:49:41;0.10;99.90
5806;DHT22;2929;50.810;8.342;2024-01-15T15:52:10;0.20;99.90
5806;DHT22;2929;50.810;8.342;2024-01-15T15:54:37;0.20;99.90
5806;DHT22;2929;50.810;8.342;2024-01-15T15:57:04;0.10;99.90
5806;DHT22;2929;50.810;8.342;2024-01-15T15:59:31;0.10;99.90
5806;DHT22;2929;50.810;8.342;2024-01-15T16:01:57;0.10;99.90
5806;DHT22;2929;50.810;8.342;2024-01-15T16:04:24;0.10;99.90
5806;DHT22;2929;50.810;8.342;2024-01-15T16:06:51;0.10;99.90
5806;DHT22;2929;50.810;8.342;2024-01-15T16:09:20;0.10;99.90
5806;DHT22;2929;50.810;8.342;2024-01-15T16:11:48;0.10;99.90
5806;DHT22;2929;50.810;8.342;2024-01-15T16:14:16;0.10;99.90